< < Back
Terminal Aerodrome Forecast


Current Version              Previous Versions:   1  2  3  4  5  6  7  8  9  

Terminal Aerodrome Forecast

048
FTUS44 KMRX 281225 AAA
TAFCHA
TAF AMD
KCHA 281225Z 2812/2912 19006KT P6SM BKN022 BKN045
     FM281400 20008KT P6SM SCT022 BKN045
     FM282000 22010KT P6SM VCTS BKN035CB
     FM290000 24010KT 4SM -SHRA BR OVC035
     FM290400 21005KT P6SM OVC025
     FM291000 20003KT P6SM OVC015=

Latest METAR

546
SAUS80 KWBC 282000 RRA
MTRCHA
METAR KCHA 281953Z 24004KT 10SM FEW030 SCT045 BKN070 27/23 A2993 RMK AO2
RAB14E47 SLP125 P0004 T02670228


USA.gov is the U.S. government's official web portal to all federal, state and local government web resources and services.